Terminal Aerodrome Forecast
Issued by NWS Detroit/Pontiac, MI

Home | Current Version | Previous Version | Text Only | Print | Product List | Glossary On
Versions: 1 2 3 4 5 6 7 8 9 10 11 12 13 14 15 16 17 18 19 20 21 22 23 24 25 26 27 28 29 30 31
925
FTUS43 KDTX 291334 AAA
TAFDTW
TAF AMD
KDTW 291334Z 2914/3018 07007KT 5SM -SHRA BKN012 BKN025
     FM291600 07013KT 6SM -SHRA OVC012
     FM300100 05012KT 3SM SHRA BR OVC007
     FM301500 07012KT 6SM -SHRA OVC025=

USA.gov is the U.S. government's official web portal to all federal, state and local government web resources and services.